createdAt,value
2023-02-09T00:01:30.862Z,34.35
2023-02-09T00:03:59.423Z,31.63
2023-02-09T00:06:29.955Z,27.45
2023-02-09T00:08:58.128Z,34.45
2023-02-09T00:11:43.128Z,35.25
2023-02-09T00:14:11.353Z,38.55
2023-02-09T00:16:39.098Z,40.13
2023-02-09T00:19:07.022Z,37.42
2023-02-09T00:21:35.035Z,38.05
2023-02-09T00:24:02.662Z,40.03
2023-02-09T00:26:32.138Z,40.55
2023-02-09T00:29:00.145Z,37.45
2023-02-09T00:31:27.833Z,41.03
2023-02-09T00:33:55.955Z,38.10
2023-02-09T00:36:23.667Z,38.20
2023-02-09T00:38:51.373Z,41.75
2023-02-09T00:41:39.129Z,39.78
2023-02-09T00:44:08.145Z,47.40
2023-02-09T00:46:36.381Z,37.67
2023-02-09T00:49:04.269Z,40.13
2023-02-09T00:51:32.014Z,43.78
2023-02-09T00:53:59.668Z,40.15
2023-02-09T00:56:27.468Z,37.97
2023-02-09T00:58:55.186Z,35.33
2023-02-09T01:01:24.461Z,40.70
2023-02-09T01:03:52.198Z,37.45
2023-02-09T01:06:19.975Z,38.28
2023-02-09T01:08:47.689Z,37.78
2023-02-09T01:11:16.822Z,35.67
2023-02-09T01:13:45.768Z,35.20
2023-02-09T01:16:17.037Z,39.20
2023-02-09T01:18:46.200Z,40.55
2023-02-09T01:21:15.450Z,42.17
2023-02-09T01:23:43.353Z,37.55
2023-02-09T01:26:12.952Z,37.17
2023-02-09T01:28:41.038Z,37.20
2023-02-09T01:31:20.430Z,36.85
2023-02-09T01:33:49.594Z,36.47
2023-02-09T01:36:17.622Z,38.10
2023-02-09T01:38:45.685Z,37.08
2023-02-09T01:41:13.629Z,36.70
2023-02-09T01:43:56.437Z,41.45
2023-02-09T01:46:25.422Z,39.53
2023-02-09T01:48:59.864Z,39.05
2023-02-09T01:51:28.438Z,44.33
2023-02-09T01:53:56.872Z,38.60
2023-02-09T01:56:30.847Z,39.55
2023-02-09T01:58:59.711Z,36.05
2023-02-09T02:01:27.751Z,35.95
2023-02-09T02:03:57.060Z,39.60
2023-02-09T02:06:24.864Z,39.83
2023-02-09T02:08:57.401Z,38.17
2023-02-09T02:11:27.663Z,37.38
2023-02-09T02:13:55.394Z,36.63
2023-02-09T02:16:46.616Z,38.40
2023-02-09T02:19:44.711Z,42.75
2023-02-09T02:22:42.237Z,35.50
2023-02-09T02:25:44.197Z,42.60
2023-02-09T02:28:31.941Z,39.47
2023-02-09T02:31:21.694Z,40.88
2023-02-09T02:33:58.948Z,39.78
2023-02-09T02:36:32.787Z,43.33
2023-02-09T02:39:07.314Z,39.35
2023-02-09T02:41:55.853Z,43.85
2023-02-09T02:44:26.780Z,42.08
2023-02-09T02:46:58.528Z,40.70
2023-02-09T02:49:34.506Z,41.28
2023-02-09T02:52:05.251Z,42.25
2023-02-09T02:54:37.710Z,45.38
2023-02-09T02:57:10.818Z,37.05
2023-02-09T02:59:44.009Z,44.63
2023-02-09T03:02:16.187Z,40.67
2023-02-09T03:04:47.048Z,51.17
2023-02-09T03:07:14.748Z,40.95
2023-02-09T03:09:49.946Z,40.22
2023-02-09T03:12:33.381Z,38.80
2023-02-09T03:15:15.045Z,51.03
2023-02-09T03:21:35.041Z,46.35
2023-02-09T03:24:06.356Z,42.88
2023-02-09T03:26:43.507Z,48.20
2023-02-09T03:29:14.133Z,41.05
2023-02-09T03:31:42.349Z,43.08
2023-02-09T03:34:11.064Z,50.70
2023-02-09T03:36:42.126Z,39.42
2023-02-09T03:39:10.119Z,41.63
2023-02-09T03:41:38.117Z,42.40
2023-02-09T03:44:23.528Z,41.42
2023-02-09T03:46:51.314Z,43.15
2023-02-09T03:49:19.195Z,44.50
2023-02-09T03:51:48.223Z,44.28
2023-02-09T03:54:15.955Z,41.92
2023-02-09T03:56:43.701Z,40.10
2023-02-09T03:59:11.535Z,41.55
2023-02-09T04:01:39.270Z,45.65
2023-02-09T04:04:07.244Z,41.85
2023-02-09T04:06:35.950Z,49.42
2023-02-09T04:09:06.244Z,45.47
2023-02-09T04:11:34.096Z,48.00
2023-02-09T04:14:01.865Z,41.95
2023-02-09T04:16:29.629Z,44.97
2023-02-09T04:18:57.371Z,46.25
2023-02-09T04:21:25.482Z,38.58
2023-02-09T04:23:53.318Z,39.58
2023-02-09T04:26:22.353Z,45.55
2023-02-09T04:28:50.152Z,46.75
2023-02-09T04:31:18.028Z,47.38
2023-02-09T04:33:45.866Z,44.25
2023-02-09T04:36:13.560Z,44.85
2023-02-09T04:38:41.244Z,50.47
2023-02-09T04:41:09.803Z,41.88
2023-02-09T04:43:38.879Z,43.88
2023-02-09T04:46:06.724Z,46.65
2023-02-09T04:48:34.538Z,48.10
2023-02-09T04:51:02.215Z,45.88
2023-02-09T04:53:29.942Z,41.58
2023-02-09T04:55:57.692Z,46.35
2023-02-09T04:58:42.668Z,47.75
2023-02-09T05:01:15.141Z,43.33
2023-02-09T05:03:43.528Z,51.53
2023-02-09T05:06:11.232Z,55.22
2023-02-09T05:08:38.907Z,48.83
2023-02-09T05:11:06.782Z,47.88
2023-02-09T05:13:34.518Z,49.72
2023-02-09T05:16:06.408Z,52.35
2023-02-09T05:18:36.183Z,47.00
2023-02-09T05:21:03.939Z,48.78
2023-02-09T05:23:31.961Z,48.80
2023-02-09T05:26:00.135Z,49.08
2023-02-09T05:28:28.065Z,41.80
2023-02-09T05:30:55.856Z,51.45
2023-02-09T05:33:24.404Z,48.92
2023-02-09T05:35:55.656Z,47.65
2023-02-09T05:38:23.858Z,53.83
2023-02-09T05:40:51.702Z,54.85
2023-02-09T05:43:19.522Z,52.90
2023-02-09T05:45:47.530Z,48.90
2023-02-09T05:48:15.201Z,56.63
2023-02-09T05:50:42.922Z,53.15
2023-02-09T05:53:14.374Z,54.40
2023-02-09T05:55:43.528Z,46.92
2023-02-09T05:58:11.519Z,56.53
2023-02-09T06:00:39.147Z,50.95
2023-02-09T06:03:06.903Z,53.42
2023-02-09T06:05:34.622Z,56.35
2023-02-09T06:08:02.335Z,55.70
2023-02-09T06:10:31.340Z,50.25
2023-02-09T06:12:59.007Z,57.53
2023-02-09T06:15:26.710Z,52.22
2023-02-09T06:17:54.379Z,47.50
2023-02-09T06:20:22.252Z,47.63
2023-02-09T06:22:49.976Z,54.42
2023-02-09T06:25:18.010Z,54.42
2023-02-09T06:27:47.082Z,49.65
2023-02-09T06:30:15.241Z,50.13
2023-02-09T06:32:42.998Z,54.38
2023-02-09T06:35:11.819Z,59.35
2023-02-09T06:37:39.483Z,49.55
2023-02-09T06:40:07.742Z,54.20
2023-02-09T06:42:44.621Z,49.35
2023-02-09T06:45:15.079Z,49.83
2023-02-09T06:47:43.436Z,64.75
2023-02-09T06:50:12.901Z,51.40
2023-02-09T06:52:40.786Z,58.97
2023-02-09T06:55:09.291Z,56.45
2023-02-09T06:57:37.372Z,51.47
2023-02-09T07:00:06.774Z,57.05
2023-02-09T07:02:35.900Z,56.40
2023-02-09T07:05:03.692Z,58.30
2023-02-09T07:07:31.409Z,51.95
2023-02-09T07:09:59.083Z,53.08
2023-02-09T07:12:26.812Z,57.08
2023-02-09T07:14:55.176Z,55.15
2023-02-09T07:17:23.011Z,57.05
2023-02-09T07:19:52.142Z,54.17
2023-02-09T07:22:19.865Z,50.83
2023-02-09T07:24:47.526Z,57.03
2023-02-09T07:27:15.712Z,56.05
2023-02-09T07:29:43.543Z,56.30
2023-02-09T07:32:11.811Z,53.65
2023-02-09T07:34:39.616Z,62.33
2023-02-09T07:37:08.725Z,58.67
2023-02-09T07:39:36.638Z,58.35
2023-02-09T07:42:04.469Z,57.53
2023-02-09T07:44:32.180Z,49.92
2023-02-09T07:46:59.907Z,58.33
2023-02-09T07:49:27.712Z,60.58
2023-02-09T07:51:55.389Z,60.78
2023-02-09T07:54:24.380Z,67.32
2023-02-09T07:56:52.087Z,66.10
2023-02-09T07:59:19.786Z,68.80
2023-02-09T08:01:47.559Z,77.93
2023-02-09T08:04:15.290Z,65.25
2023-02-09T08:06:45.249Z,62.33
2023-02-09T08:09:16.570Z,65.85
2023-02-09T08:11:54.262Z,68.45
2023-02-09T08:14:26.155Z,66.00
2023-02-09T08:17:18.303Z,65.30
2023-02-09T08:19:47.536Z,60.85
2023-02-09T08:22:15.503Z,60.85
2023-02-09T08:24:43.713Z,62.30
2023-02-09T08:27:13.089Z,65.22
2023-02-09T08:29:41.028Z,62.97
2023-02-09T08:32:08.731Z,57.50
2023-02-09T08:34:42.690Z,57.97
2023-02-09T08:37:10.382Z,56.22
2023-02-09T08:39:38.066Z,46.17
2023-02-09T08:42:05.757Z,47.50
2023-02-09T08:44:35.178Z,47.33
2023-02-09T08:47:03.034Z,43.17
2023-02-09T08:49:30.773Z,47.33
2023-02-09T08:51:58.448Z,42.85
2023-02-09T08:54:26.899Z,47.78
2023-02-09T08:56:54.810Z,51.30
2023-02-09T08:59:23.516Z,51.22
2023-02-09T09:01:53.424Z,49.83
2023-02-09T09:04:21.897Z,45.60
2023-02-09T09:06:49.716Z,51.28
2023-02-09T09:09:17.367Z,45.60
2023-02-09T09:11:45.054Z,51.80
2023-02-09T09:14:12.949Z,47.00
2023-02-09T09:16:40.850Z,51.92
2023-02-09T09:19:09.968Z,48.53
2023-02-09T09:21:37.673Z,43.92
2023-02-09T09:24:06.056Z,50.35
2023-02-09T09:26:35.302Z,46.40
2023-02-09T09:29:03.230Z,51.03
2023-02-09T09:31:33.499Z,45.40
2023-02-09T09:34:01.379Z,43.25
2023-02-09T09:36:30.584Z,43.85
2023-02-09T09:38:59.072Z,47.28
2023-02-09T09:41:31.705Z,48.13
2023-02-09T09:44:01.214Z,51.10
2023-02-09T09:46:36.640Z,46.92
2023-02-09T09:49:05.570Z,46.53
2023-02-09T09:51:40.817Z,48.53
2023-02-09T09:54:15.272Z,48.30
2023-02-09T09:56:43.176Z,55.13
2023-02-09T09:59:17.764Z,49.10
2023-02-09T10:01:45.765Z,46.22
2023-02-09T10:04:16.229Z,45.15
2023-02-09T10:06:47.657Z,53.30
2023-02-09T10:09:27.410Z,51.83
2023-02-09T10:12:19.950Z,43.90
2023-02-09T10:14:47.673Z,53.67
2023-02-09T10:17:15.397Z,43.17
2023-02-09T10:19:43.183Z,44.70
2023-02-09T10:22:14.068Z,48.27
2023-02-09T10:24:42.032Z,48.27
2023-02-09T10:27:15.765Z,45.70
2023-02-09T10:29:43.552Z,44.47
2023-02-09T10:32:17.746Z,36.17
2023-02-09T10:34:48.546Z,40.73
2023-02-09T10:37:22.660Z,47.00
2023-02-09T10:40:00.006Z,41.90
2023-02-09T10:42:30.720Z,44.80
2023-02-09T10:45:04.762Z,44.13
2023-02-09T10:47:32.804Z,41.57
2023-02-09T10:50:15.499Z,44.85
2023-02-09T10:52:54.633Z,44.90
2023-02-09T10:55:26.972Z,44.90
2023-02-09T10:58:06.425Z,41.17
2023-02-09T11:00:38.840Z,36.08
2023-02-09T11:03:17.413Z,44.30
2023-02-09T11:05:47.642Z,47.43
2023-02-09T11:08:22.688Z,37.80
2023-02-09T11:11:01.803Z,36.77
2023-02-09T11:13:32.178Z,35.83
2023-02-09T11:16:25.578Z,56.23
2023-02-09T11:19:01.801Z,35.37
2023-02-09T11:21:41.890Z,40.07
2023-02-09T11:24:21.820Z,41.17
2023-02-09T11:26:54.463Z,42.67
2023-02-09T11:29:29.719Z,39.30
2023-02-09T11:32:11.262Z,38.90
2023-02-09T11:35:01.732Z,43.67
2023-02-09T11:37:36.307Z,48.23
2023-02-09T11:40:22.277Z,42.53
2023-02-09T11:42:57.968Z,46.30
2023-02-09T11:45:31.777Z,43.60
2023-02-09T11:48:06.644Z,38.30
2023-02-09T11:50:41.965Z,47.58
2023-02-09T11:53:19.403Z,51.63
2023-02-09T11:55:53.354Z,45.80
2023-02-09T11:58:41.930Z,53.28
2023-02-09T12:01:20.137Z,46.15
2023-02-09T12:04:00.219Z,48.53
2023-02-09T12:06:33.424Z,49.72
2023-02-09T12:09:09.536Z,49.53
2023-02-09T12:11:48.921Z,50.53
2023-02-09T12:14:36.417Z,47.13
2023-02-09T12:17:12.032Z,46.08
2023-02-09T12:19:44.621Z,48.10
2023-02-09T12:22:49.374Z,45.33
2023-02-09T12:25:40.549Z,50.83
2023-02-09T12:28:18.018Z,52.05
2023-02-09T12:31:03.525Z,47.00
2023-02-09T12:33:34.289Z,47.63
2023-02-09T12:36:05.066Z,40.97
2023-02-09T12:38:49.316Z,42.85
2023-02-09T12:41:18.968Z,49.63
2023-02-09T12:43:49.414Z,51.03
2023-02-09T12:46:22.461Z,41.30
2023-02-09T12:49:20.569Z,48.60
2023-02-09T12:51:54.957Z,43.65
2023-02-09T12:54:35.755Z,45.53
2023-02-09T12:57:52.237Z,43.05
2023-02-09T13:00:53.956Z,48.85
2023-02-09T13:03:24.296Z,49.55
2023-02-09T13:05:54.928Z,51.22
2023-02-09T13:08:33.062Z,45.00
2023-02-09T13:11:06.110Z,43.08
2023-02-09T13:13:54.561Z,44.03
2023-02-09T13:16:54.853Z,47.20
2023-02-09T13:19:47.761Z,45.72
2023-02-09T13:22:36.123Z,47.78
2023-02-09T13:25:14.589Z,46.33
2023-02-09T13:27:47.146Z,52.00
2023-02-09T13:30:25.070Z,44.45
2023-02-09T13:33:02.963Z,51.05
2023-02-09T13:35:35.457Z,47.13
2023-02-09T13:38:16.677Z,44.20
2023-02-09T13:40:47.733Z,43.67
2023-02-09T13:43:21.914Z,45.15
2023-02-09T13:45:51.284Z,56.60
2023-02-09T13:48:25.001Z,47.05
2023-02-09T13:50:53.978Z,46.63
2023-02-09T13:53:24.930Z,46.03
2023-02-09T13:55:55.443Z,43.60
2023-02-09T13:58:26.977Z,52.15
2023-02-09T14:00:57.199Z,49.50
2023-02-09T14:03:29.896Z,45.67
2023-02-09T14:06:02.295Z,44.10
2023-02-09T14:08:33.399Z,45.30
2023-02-09T14:11:13.673Z,44.85
2023-02-09T14:13:45.222Z,52.50
2023-02-09T14:16:16.596Z,44.13
2023-02-09T14:18:51.344Z,45.95
2023-02-09T14:21:24.902Z,47.35
2023-02-09T14:24:17.735Z,43.55
2023-02-09T14:26:52.192Z,42.13
2023-02-09T14:29:23.870Z,51.22
2023-02-09T14:31:54.298Z,47.08
2023-02-09T14:34:31.150Z,49.13
2023-02-09T14:37:01.114Z,51.40
2023-02-09T14:39:31.326Z,52.67
2023-02-09T14:42:18.189Z,51.85
2023-02-09T14:44:48.569Z,49.40
2023-02-09T14:47:31.708Z,49.58
2023-02-09T14:50:00.883Z,47.90
2023-02-09T14:52:32.618Z,51.72
2023-02-09T14:55:04.526Z,47.65
2023-02-09T14:57:35.999Z,48.85
2023-02-09T15:00:15.409Z,53.17
2023-02-09T15:02:43.934Z,50.80
2023-02-09T15:05:13.493Z,49.30
2023-02-09T15:07:44.669Z,52.75
2023-02-09T15:10:21.394Z,53.55
2023-02-09T15:12:49.272Z,57.25
2023-02-09T15:15:19.445Z,49.67
2023-02-09T15:17:47.622Z,50.15
2023-02-09T15:20:17.725Z,47.70
2023-02-09T15:22:46.121Z,61.03
2023-02-09T15:25:14.754Z,50.22
2023-02-09T15:27:51.199Z,48.20
2023-02-09T15:30:21.976Z,53.15
2023-02-09T15:32:49.794Z,45.90
2023-02-09T15:35:21.158Z,45.28
2023-02-09T15:37:50.804Z,46.35
2023-02-09T15:40:43.741Z,44.78
2023-02-09T15:43:31.209Z,50.63
2023-02-09T15:46:16.556Z,53.55
2023-02-09T15:48:44.725Z,52.17
2023-02-09T15:51:14.141Z,52.17
2023-02-09T15:53:42.604Z,46.13
2023-02-09T15:56:12.669Z,55.83
2023-02-09T15:58:42.857Z,46.20
2023-02-09T16:01:14.056Z,48.55
2023-02-09T16:03:43.276Z,42.83
2023-02-09T16:06:18.380Z,45.50
2023-02-09T16:08:47.625Z,43.08
2023-02-09T16:11:20.407Z,46.67
2023-02-09T16:13:48.193Z,45.22
2023-02-09T16:16:17.885Z,47.00
2023-02-09T16:18:46.185Z,45.45
2023-02-09T16:21:20.963Z,39.33
2023-02-09T16:23:49.162Z,38.70
2023-02-09T16:26:19.196Z,47.15
2023-02-09T16:28:47.349Z,45.40
2023-02-09T16:31:15.104Z,43.72
2023-02-09T16:33:43.441Z,47.00
2023-02-09T16:36:14.899Z,41.05
2023-02-09T16:38:44.645Z,40.13
2023-02-09T16:41:35.181Z,46.92
2023-02-09T16:44:10.683Z,40.72
2023-02-09T16:46:38.457Z,45.53
2023-02-09T16:49:06.339Z,45.55
2023-02-09T16:51:35.089Z,39.80
2023-02-09T16:54:06.018Z,51.95
2023-02-09T16:56:35.932Z,46.88
2023-02-09T16:59:04.940Z,53.13
2023-02-09T17:01:34.522Z,40.35
2023-02-09T17:04:04.723Z,47.17
2023-02-09T17:06:32.471Z,50.90
2023-02-09T17:09:00.188Z,49.85
2023-02-09T17:11:29.674Z,50.45
2023-02-09T17:13:57.436Z,42.10
2023-02-09T17:16:34.883Z,43.30
2023-02-09T17:19:04.629Z,39.80
2023-02-09T17:21:35.389Z,42.60
2023-02-09T17:24:05.159Z,43.25
2023-02-09T17:26:34.300Z,46.05
2023-02-09T17:29:01.959Z,50.22
2023-02-09T17:31:43.818Z,47.33
2023-02-09T17:34:18.730Z,42.95
2023-02-09T17:36:46.388Z,43.22
2023-02-09T17:39:14.202Z,44.15
2023-02-09T17:41:46.505Z,46.33
2023-02-09T17:44:46.869Z,46.28
2023-02-09T17:47:04.249Z,49.83
2023-02-09T17:49:32.230Z,49.92
2023-02-09T17:52:00.004Z,50.38
2023-02-09T17:54:28.140Z,46.28
2023-02-09T17:56:57.209Z,47.97
2023-02-09T17:59:24.951Z,45.10
2023-02-09T18:01:55.173Z,51.42
2023-02-09T18:04:26.679Z,45.25
2023-02-09T18:06:56.676Z,51.28
2023-02-09T18:09:25.430Z,51.40
2023-02-09T18:12:02.054Z,48.88
2023-02-09T18:14:31.597Z,55.15
2023-02-09T18:16:59.408Z,49.22
2023-02-09T18:19:27.329Z,54.15
2023-02-09T18:21:56.727Z,49.88
2023-02-09T18:24:26.668Z,47.70
2023-02-09T18:26:54.608Z,52.55
2023-02-09T18:29:29.027Z,52.65
2023-02-09T18:31:56.802Z,52.22
2023-02-09T18:34:24.617Z,50.97
2023-02-09T18:36:52.316Z,55.03
2023-02-09T18:39:20.067Z,56.50
2023-02-09T18:41:53.962Z,48.97
2023-02-09T18:44:28.651Z,58.85
2023-02-09T18:46:56.737Z,55.13
2023-02-09T18:49:24.511Z,52.53
2023-02-09T18:51:53.121Z,48.50
2023-02-09T18:54:20.854Z,52.75
2023-02-09T18:56:48.512Z,62.03
2023-02-09T18:59:17.691Z,61.08
2023-02-09T19:01:47.321Z,60.33
2023-02-09T19:04:15.121Z,53.53
2023-02-09T19:06:42.856Z,53.85
2023-02-09T19:09:10.598Z,52.88
2023-02-09T19:11:38.363Z,53.35
2023-02-09T19:14:23.632Z,47.90
2023-02-09T19:16:52.718Z,73.00
2023-02-09T19:19:20.788Z,94.63
2023-02-09T19:21:51.960Z,70.63
2023-02-09T19:24:20.055Z,68.45
2023-02-09T19:26:47.779Z,63.88
2023-02-09T19:29:15.765Z,55.90
2023-02-09T19:31:43.635Z,53.53
2023-02-09T19:34:12.730Z,54.83
2023-02-09T19:36:40.469Z,52.67
2023-02-09T19:39:08.266Z,56.60
2023-02-09T19:41:36.134Z,54.83
2023-02-09T19:44:04.471Z,52.58
2023-02-09T19:46:32.917Z,56.13
2023-02-09T19:49:01.981Z,54.80
2023-02-09T19:51:31.065Z,55.30
2023-02-09T19:53:58.876Z,53.53
2023-02-09T19:56:26.601Z,53.78
2023-02-09T19:58:54.376Z,53.95
2023-02-09T20:01:22.893Z,59.35
2023-02-09T20:03:52.312Z,58.17
2023-02-09T20:06:20.307Z,56.53
2023-02-09T20:08:49.504Z,59.42
2023-02-09T20:11:19.506Z,63.72
2023-02-09T20:13:51.465Z,55.38
2023-02-09T20:16:22.967Z,59.58
2023-02-09T20:18:51.363Z,53.85
2023-02-09T20:21:21.332Z,57.42
2023-02-09T20:23:53.844Z,60.33
2023-02-09T20:26:24.550Z,57.00
2023-02-09T20:28:52.344Z,67.30
2023-02-09T20:31:21.131Z,60.42
2023-02-09T20:33:49.236Z,60.80
2023-02-09T20:36:18.483Z,58.38
2023-02-09T20:38:46.365Z,60.38
2023-02-09T20:41:17.625Z,56.78
2023-02-09T20:44:03.591Z,60.38
2023-02-09T20:46:55.823Z,62.60
2023-02-09T20:49:25.796Z,55.38
2023-02-09T20:51:53.659Z,57.15
2023-02-09T20:54:21.547Z,61.53
2023-02-09T20:56:50.695Z,57.20
2023-02-09T20:59:18.479Z,59.15
2023-02-09T21:01:46.202Z,60.70
2023-02-09T21:04:13.903Z,58.92
2023-02-09T21:06:41.864Z,57.25
2023-02-09T21:09:14.024Z,58.25
2023-02-09T21:11:42.125Z,64.75
2023-02-09T21:14:21.740Z,67.28
2023-02-09T21:16:56.325Z,58.72
2023-02-09T21:19:24.536Z,58.33
2023-02-09T21:21:52.351Z,62.97
2023-02-09T21:24:20.246Z,59.78
2023-02-09T21:26:47.990Z,58.28
2023-02-09T21:29:17.147Z,66.95
2023-02-09T21:31:45.664Z,54.88
2023-02-09T21:34:17.586Z,59.47
2023-02-09T21:36:45.635Z,56.45
2023-02-09T21:39:14.241Z,64.60
2023-02-09T21:41:59.671Z,60.15
2023-02-09T21:44:29.373Z,61.83
2023-02-09T21:46:57.029Z,60.90
2023-02-09T21:49:25.091Z,56.60
2023-02-09T21:51:52.852Z,56.35
2023-02-09T21:54:20.531Z,59.03
2023-02-09T21:56:48.295Z,52.25
2023-02-09T21:59:15.994Z,59.75
2023-02-09T22:01:45.029Z,59.55
2023-02-09T22:04:12.709Z,58.35
2023-02-09T22:06:41.684Z,58.40
2023-02-09T22:09:09.498Z,55.63
2023-02-09T22:11:37.177Z,62.97
2023-02-09T22:14:05.249Z,55.78
2023-02-09T22:16:32.986Z,60.35
2023-02-09T22:19:02.135Z,62.95
2023-02-09T22:21:29.930Z,56.00
2023-02-09T22:23:57.592Z,56.95
2023-02-09T22:26:25.318Z,57.45
2023-02-09T22:28:53.085Z,54.90
2023-02-09T22:31:21.757Z,64.10
2023-02-09T22:33:53.216Z,54.90
2023-02-09T22:36:23.382Z,59.75
2023-02-09T22:38:51.510Z,55.13
2023-02-09T22:41:24.441Z,55.33
2023-02-09T22:43:54.471Z,58.10
2023-02-09T22:46:23.996Z,56.42
2023-02-09T22:48:52.439Z,53.97
2023-02-09T22:51:22.624Z,55.70
2023-02-09T22:53:50.965Z,51.83
2023-02-09T22:56:18.645Z,61.88
2023-02-09T22:58:46.444Z,57.15
2023-02-09T23:01:14.577Z,53.63
2023-02-09T23:03:42.870Z,56.72
2023-02-09T23:06:18.017Z,56.75
2023-02-09T23:08:47.414Z,56.33
2023-02-09T23:11:16.853Z,54.50
2023-02-09T23:13:45.463Z,59.17
2023-02-09T23:16:14.815Z,56.60
2023-02-09T23:18:47.459Z,55.50
2023-02-09T23:21:16.023Z,51.75
2023-02-09T23:23:44.239Z,53.05
2023-02-09T23:26:14.192Z,52.83
2023-02-09T23:28:41.893Z,50.58
2023-02-09T23:31:15.740Z,52.10
2023-02-09T23:33:43.996Z,54.08
2023-02-09T23:36:13.909Z,64.53
2023-02-09T23:38:42.298Z,57.97
2023-02-09T23:41:11.834Z,56.53
2023-02-09T23:43:41.405Z,53.22
2023-02-09T23:46:13.297Z,52.97
2023-02-09T23:48:41.085Z,55.70
2023-02-09T23:51:12.225Z,52.08
2023-02-09T23:53:40.191Z,55.40
2023-02-09T23:56:08.902Z,54.90
2023-02-09T23:58:38.557Z,49.90
